Tiempo atmosférico en la estación meteorológica de Almazul, Soria (1000 m.)



Fecha
DESCASC
Temp. máxima en grados centígrados (hora)
DESCASC
Temp. mínima en grados centígrados (hora)
DESCASC
Temp. media en grados centígrados
DESCASC
Racha de viento máxima en m/sg (hora)
DESCASC
Velocidad máxima media en intervalos de 10 minutos(hora)
DESCASC
Precipitaciones diarias en mm
DESCASC
Precipitaciones de 00:00 a 06:00 en mm
DESCASC
Precipitaciones de 06:00 a 12:00 en mm
DESCASC
Precipitaciones de 12:00 a 18:00 en mm
DESCASC
Precipitaciones de 18:00 a 24:00 en mm
DESCASC
20-09-2020 19.1 (16:20) 11.5 (04:50) 15.3 10.28 (17:00) 6.67 (19:10) 4.4 0 0.6 1.6 2.2
19-09-2020 17.9 (14:50) 11.2 (06:30) 14.5 16.94 (13:10) 12.78 (13:10) 4 2 0.4 0.4 1.2
17-09-2020 26.8 (16:00) 17.6 (00:00) 22.2 13.06 (14:30) 9.17 (14:30) 0 0 0 0 0
16-09-2020 29.7 (17:00) 11.6 (08:30) 20.7 8.89 (18:20) 6.67 (18:10) 0 0 0 0 0
15-09-2020 27.6 (17:20) 14.4 (00:00) 21 10 (17:30) 6.39 (15:50) 1.4 0 1.4 0 0
14-09-2020 30 (16:40) 12 (00:00) 21 10.28 (16:20) 6.67 (13:20) 0 0 0 0 0
13-09-2020 31.6 (16:20) 12.1 (00:00) 21.9 10 (15:10) 7.22 (23:00) 0 0 0 0 0
12-09-2020 30.7 (17:00) 11.2 (07:20) 21 7.78 (19:10) 6.11 (19:10) 0 0 0 0 0
11-09-2020 29.8 (17:30) 10.6 (00:00) 20.2 9.72 (19:10) 7.22 (18:50) 0 0 0 0 0
10-09-2020 25.8 (16:40) 13.2 (00:00) 19.5 12.5 (12:00) 9.17 (12:00) 0 0 0 0 0
09-09-2020 25.7 (16:10) 10.1 (08:00) 17.9 13.06 (22:40) 10.83 (22:40) 0 0 0 0 0
08-09-2020 23.8 (16:50) 6.4 (00:00) 15.1 14.44 (01:00) 11.39 (00:50) 0 0 0 0 0
07-09-2020 19.5 (16:50) 10 (05:30) 14.8 17.22 (09:20) 12.5 (03:10) 0 0 0 0 0
06-09-2020 23.3 (13:30) 11.2 (00:00) 17.2 16.11 (21:10) 12.22 (21:10) 0 0 0 0 0
05-09-2020 30.4 (16:00) 13 (00:00) 21.7 12.22 (20:10) 9.44 (20:30) 0 0 0 0 0
04-09-2020 32.5 (17:30) 10.5 (00:00) 21.5 9.44 (20:40) 6.67 (20:40) 0 0 0 0 0
03-09-2020 31.5 (17:30) 7 (00:00) 19.3 8.61 (17:00) 6.67 (21:40) 0 0 0 0 0
02-09-2020 25 (18:00) 9.9 (00:00) 17.4 13.61 (12:20) 8.61 (10:20) 0 0 0 0 0
01-09-2020 26.3 (16:00) 9.7 (00:00) 18 14.44 (23:50) 10.83 (23:20) 0 0 0 0 0
31-08-2020 24.9 (17:00) 4.5 (00:00) 14.7 10.83 (17:30) 6.39 (20:40) 0 0 0 0 0
30-08-2020 17.9 (17:00) 5.1 (00:00) 11.5 12.78 (00:20) 9.44 (00:30) 0 0 0 0 0
29-08-2020 19 (15:50) 7.7 (00:00) 13.3 15.83 (01:10) 12.22 (00:10) 0.2 0 0 0.2 0
28-08-2020 27.5 (15:40) 12.1 (00:00) 19.8 17.22 (23:20) 12.5 (23:20) 0 0 0 0 0
27-08-2020 33.2 (17:30) 15 (00:00) 24.1 11.39 (16:00) 6.67 (18:00) 0 0 0 0 0
26-08-2020 35 (18:10) 13.6 (00:00) 24.3 11.39 (16:10) 8.61 (19:40) 0 0 0 0 0
25-08-2020 34.1 (17:30) 11.5 (00:00) 22.8 14.72 (13:50) 5.83 (13:50) 0 0 0 0 0
24-08-2020 31 (18:00) 10.9 (07:40) 20.9 9.44 (15:50) 6.11 (20:10) 0 0 0 0 0
23-08-2020 27.3 (17:20) 12.8 (00:00) 20 11.11 (21:40) 9.17 (20:30) 0 0 0 0 0

Gráficas

Temp. máximas Temp. mínimas Temp. medias Precipitaciones Rachas de viento máximas Velocidades máximas media en intervalos de 10 minutos

Datos horarios

Fecha y hora oficial Temperatura (ºC) Velocidad del viento (km/h) Dirección del viento Racha (km/h) Dirección de racha Precipitación (mm) Presión (hPa) Tendencia (hPa) Humedad (%)
2020-09-21 23:00:00 12.5 14 Nordeste 16 Nordeste 0 -- -- 84
2020-09-21 22:00:00 13.5 12 Nordeste 22 Nordeste 0 -- -- 79
2020-09-21 21:00:00 15 16 Nordeste 20 Nordeste 0 -- -- 72
2020-09-21 20:00:00 17 14 Nordeste 20 Nordeste 0 -- -- 65
2020-09-21 19:00:00 19 11 Nordeste 21 Nordeste 0 -- -- 57
2020-09-21 18:00:00 20.4 14 Nordeste 21 Nordeste 0 -- -- 52
2020-09-21 17:00:00 18.7 11 Noroeste 18 Noroeste 0 -- -- 56
2020-09-21 16:00:00 20.6 12 Noroeste 21 Oeste 0 -- -- 52
2020-09-21 15:00:00 18.5 9 Oeste 15 Oeste 0 -- -- 60
2020-09-21 14:00:00 18.7 6 Noroeste 17 Norte 0 -- -- 56
2020-09-21 13:00:00 18.3 10 Oeste 17 Noroeste 0 -- -- 60
2020-09-21 12:00:00 17.2 10 Norte 17 Norte 0 -- -- 69
2020-09-21 11:00:00 16 12 Norte 19 Norte 0 -- -- 78
2020-09-21 10:00:00 14.2 10 Norte 17 Norte 0 -- -- 85
2020-09-21 09:00:00 13.2 6 Norte 9 Norte 0 -- -- 93
2020-09-21 08:00:00 12.5 0 Calma 4 Norte 0 -- -- 95
2020-09-21 07:00:00 12.9 4 Norte 9 Norte 0 -- -- 95
2020-09-21 06:00:00 12.9 4 Noroeste 10 Noroeste 0.2 -- -- 96
2020-09-21 05:00:00 12.6 3 Noroeste 10 Noroeste 0 -- -- 95
2020-09-21 04:00:00 12.6 4 Norte 7 Nordeste 0 -- -- 95
2020-09-21 03:00:00 12.3 3 Nordeste 6 Noroeste 0 -- -- 96
2020-09-21 02:00:00 12.6 2 Nordeste 5 Sudeste 0 -- -- 95
2020-09-21 01:00:00 12.4 2 Oeste 11 Oeste 0 -- -- 94
2020-09-21 00:00:00 13.1 7 Noroeste 8 Noroeste 0 -- -- 94
2020-09-20 23:00:00 12.4 3 Nordeste 8 Sudeste 0 -- -- 94
2020-09-20 22:00:00 13.2 6 Sudeste 10 Sudeste 0 -- -- 91
2020-09-20 21:00:00 13.3 9 Sudeste 10 Sur 0 -- -- 91
2020-09-20 20:00:00 13.5 5 Oeste 35 Oeste 2.2 -- -- 90
2020-09-20 19:00:00 15.3 15 Oeste 28 Oeste 0 -- -- 85
2020-09-20 18:00:00 15.8 10 Oeste 27 Oeste 0.4 -- -- 85
2020-09-20 17:00:00 15.9 21 Oeste 37 Oeste 1.2 -- -- 84
2020-09-20 16:00:00 17.9 15 Oeste 28 Oeste 0 -- -- 75
2020-09-20 15:00:00 17.7 21 Sudoeste 26 Sudoeste 0 -- -- 77
2020-09-20 14:00:00 17.1 9 Oeste 23 Oeste 0 -- -- 78
2020-09-20 13:00:00 16.1 10 Oeste 21 Noroeste 0 -- -- 83
2020-09-20 12:00:00 14.9 12 Noroeste 22 Noroeste 0.2 -- -- 87
2020-09-20 11:00:00 14 10 Oeste 16 Noroeste 0 -- -- 93
2020-09-20 10:00:00 13.4 10 Sur 15 Sur 0 -- -- 95
2020-09-20 09:00:00 12.7 3 Sudoeste 7 Noroeste 0 -- -- 96
2020-09-20 08:00:00 12.3 5 Noroeste 9 Noroeste 0 -- -- 96
2020-09-20 07:00:00 12.1 6 Noroeste 13 Oeste 0.4 -- -- 96
2020-09-20 06:00:00 12 0 Calma 5 Sur 0 -- -- 94
2020-09-20 05:00:00 11.5 4 Sudoeste 10 Norte 0 -- -- 93
2020-09-20 04:00:00 11.7 5 Noroeste 19 Noroeste 0 -- -- 91
2020-09-20 03:00:00 12.2 12 Noroeste 22 Noroeste 0 -- -- 88
2020-09-20 02:00:00 12.7 13 Noroeste 30 Noroeste 0 -- -- 86
2020-09-20 01:00:00 13.3 19 Noroeste 31 Noroeste 0 -- -- 85
2020-09-20 00:00:00 13.8 15 Noroeste 23 Oeste 0 -- -- 89
2020-09-19 23:00:00 13.2 8 Oeste 13 Sudoeste 0 -- -- 92
2020-09-19 22:00:00 13.8 10 Sudoeste 14 Sudoeste 0.2 -- -- 92
2020-09-19 21:00:00 13.5 3 Sudoeste 14 Oeste 0 -- -- 92
2020-09-19 20:00:00 14.1 9 Oeste 26 Oeste 0 -- -- 89
2020-09-19 19:00:00 14.6 12 Oeste 27 Sudoeste 1 -- -- 88
2020-09-19 18:00:00 15.2 24 Oeste 42 Oeste 0 -- -- 86
2020-09-19 17:00:00 15.7 31 Sudoeste 42 Oeste 0.2 -- -- 81
2020-09-19 16:00:00 15.3 30 Oeste 55 Oeste 0 -- -- 78
2020-09-19 15:00:00 17.4 43 Oeste 57 Sudoeste 0 -- -- 69
2020-09-19 14:00:00 16.4 42 Sudoeste 61 Sudoeste 0 -- -- 73
2020-09-19 13:00:00 15.8 36 Sudoeste 55 Sudoeste 0.2 -- -- 78
2020-09-19 12:00:00 15.4 35 Sudoeste 51 Sudoeste 0 -- -- 79
2020-09-19 11:00:00 14.1 30 Sudoeste 39 Sudoeste 0 -- -- 86
2020-09-19 10:00:00 14 22 Sudoeste 35 Sudoeste 0 -- -- 89
2020-09-19 09:00:00 13 20 Sudoeste 26 Sudoeste 0 -- -- 94
2020-09-19 08:00:00 11.8 14 Sur 22 Sur 0.4 -- -- 94
2020-09-19 07:00:00 11.3 10 Sur 29 Sudoeste 0 -- -- 93
2020-09-19 06:00:00 11.4 18 Sur 31 Sur 0.4 -- -- 92
2020-09-19 05:00:00 11.9 24 Sur 59 Sudoeste 1.4 -- -- 88
2020-09-19 04:00:00 14.1 32 Sudoeste 45 Sudoeste 0.2 -- -- 83
2020-09-19 03:00:00 12.9 16 Sur 22 Sur 0 -- -- 86
2020-09-19 02:00:00 12.4 5 Sur 21 Sur 0 -- -- 86
2020-09-19 01:00:00 12.2 15 Sur 18 Sur 0 -- -- 88
2020-09-19 00:00:00 12.3 6 Sur 10 Sur 0 -- -- 87
2020-09-18 23:00:00 12.7 0 Calma 10 Sur 0 -- -- 87
2020-09-18 22:00:00 13.3 11 Sur 24 Sur 0 -- -- 84
2020-09-18 21:00:00 14.3 23 Sudoeste 46 Sudoeste 0.2 -- -- 80
2020-09-18 20:00:00 17.2 21 Sudoeste 26 Sudoeste 0 -- -- 69
2020-09-18 19:00:00 19.5 20 Sudoeste 32 Sudoeste 0 -- -- 59
2020-09-18 18:00:00 20.3 19 Sudoeste 36 Sur 0 -- -- 54
2020-09-18 17:00:00 18.8 24 Sudoeste 33 Sudoeste 0 -- -- 58
2020-09-18 16:00:00 18.3 17 Sudoeste 27 Sudoeste 0 -- -- 74
2020-09-18 15:00:00 15.5 27 Sudoeste 50 Sudoeste 0.2 -- -- 82
2020-09-18 14:00:00 21 24 Sudoeste 38 Sudoeste 0 -- -- 54
2020-09-18 13:00:00 20.1 24 Sudoeste 36 Sudoeste 0 -- -- 60
2020-09-18 12:00:00 19.6 27 Sur 35 Sur 0.2 -- -- 63
2020-09-18 11:00:00 17.6 21 Sur 32 Sur 0 -- -- 81
2020-09-18 10:00:00 17 14 Sur 22 Sur 0 -- -- 83
2020-09-18 09:00:00 16.4 5 Sur 22 Sur 0 -- -- 85
2020-09-18 08:00:00 15.9 10 Sur 18 Sur 0 -- -- 89
2020-09-18 07:00:00 15.5 6 Sudeste 16 Sur 0 -- -- 91
2020-09-18 06:00:00 15.5 8 Sur 18 Sudeste 0 -- -- 91
2020-09-18 05:00:00 15.6 8 Nordeste 9 Este 0.4 -- -- 93
2020-09-18 04:00:00 15.8 5 Sur 10 Norte 0.8 -- -- 92
2020-09-18 03:00:00 16.1 6 Norte 15 Sudeste 0 -- -- 86
2020-09-18 02:00:00 16.2 10 Sudeste 20 Sur 0.4 -- -- 87
2020-09-18 01:00:00 15.3 11 Sur 67 Sudoeste 0.8 -- -- 91
2020-09-18 00:00:00 18.3 12 Sur 19 Sur 0 -- -- 65
2020-09-17 23:00:00 18.6 6 Sur 12 Sur 0 -- -- 63
2020-09-17 22:00:00 19.4 9 Sur 14 Sur 0 -- -- 61
2020-09-17 21:00:00 19.9 12 Sur 26 Sudoeste 0 -- -- 60
2020-09-17 20:00:00 22 21 Sudoeste 35 Sudoeste 0 -- -- 54
2020-09-17 19:00:00 22.8 26 Sudoeste 42 Sudoeste 0 -- -- 51
2020-09-17 18:00:00 25.7 31 Sudoeste 42 Oeste 0 -- -- 43
2020-09-17 17:00:00 24.6 23 Sudoeste 38 Sur 0 -- -- 43
2020-09-17 16:00:00 26.8 28 Sudoeste 45 Sudoeste 0 -- -- 38
2020-09-17 15:00:00 25.7 26 Sudoeste 47 Sudoeste 0 -- -- 42
2020-09-17 14:00:00 24.7 26 Sudoeste 38 Sur 0 -- -- 43
2020-09-17 13:00:00 23.5 24 Sur 38 Sur 0 -- -- 42
2020-09-17 12:00:00 21.3 17 Sur 32 Sur 0 -- -- 48
2020-09-17 11:00:00 21.1 13 Sur 18 Sur 0 -- -- 50
2020-09-17 10:00:00 22.6 4 Sur 9 Sur 0 -- -- 48
2020-09-17 09:00:00 18.3 5 Sudeste 10 Sudeste 0 -- -- 61
2020-09-17 08:00:00 18 5 Sur 10 Sudeste 0 -- -- 61
2020-09-17 07:00:00 18.3 3 Sudeste 6 Sudeste 0 -- -- 61
2020-09-17 06:00:00 18.1 5 Oeste 19 Sudeste 0 -- -- 62
2020-09-17 05:00:00 19.2 10 Sur 19 Sudeste 0 -- -- 59
2020-09-17 04:00:00 19.3 9 Sudeste 13 Sudeste 0 -- -- 58
2020-09-17 03:00:00 19.1 7 Sur 13 Sudeste 0 -- -- 58
2020-09-17 02:00:00 20.2 6 Sur 20 Sur 0 -- -- 54
2020-09-17 01:00:00 21.4 9 Sur 16 Sur 0 -- -- 49
2020-09-17 00:00:00 21.4 10 Sudeste 22 Sudeste 0 -- -- 49
2020-09-16 23:00:00 20 4 Nordeste 18 Sudeste 0 -- -- 53
2020-09-16 22:00:00 21.3 9 Sudeste 19 Sudeste 0 -- -- 49
2020-09-16 21:00:00 22.6 13 Sur 21 Sudeste 0 -- -- 46
2020-09-16 20:00:00 24.4 20 Sudeste 30 Sudeste 0 -- -- 43
2020-09-16 19:00:00 25.8 23 Sur 32 Sur 0 -- -- 40
2020-09-16 18:00:00 26.7 23 Sur 31 Sur 0 -- -- 36
2020-09-16 17:00:00 29.7 15 Sur 26 Sudoeste 0 -- -- 32
2020-09-16 16:00:00 29.1 4 Nordeste 19 Sur 0 -- -- 32
2020-09-16 15:00:00 27.9 9 Sur 22 Sudoeste 0 -- -- 33
2020-09-16 14:00:00 28.2 9 Sudeste 26 Sur 0 -- -- 34
2020-09-16 13:00:00 27.7 8 Sur 29 Sur 0 -- -- 36
2020-09-16 12:00:00 27.1 5 Sudeste 13 Sur 0 -- -- 38
2020-09-16 11:00:00 25.6 2 Noroeste 8 Norte 0 -- -- 40
2020-09-16 10:00:00 18.9 6 Norte 10 Norte 0 -- -- 60
2020-09-16 09:00:00 13.7 4 Nordeste 12 Norte 0 -- -- 77
2020-09-16 08:00:00 12.6 5 Nordeste 18 Nordeste 0 -- -- 79
2020-09-16 07:00:00 12.3 10 Nordeste 16 Norte 0 -- -- 79
2020-09-16 06:00:00 13.2 5 Nordeste 12 Nordeste 0 -- -- 75
2020-09-16 05:00:00 13.2 6 Nordeste 9 Nordeste 0 -- -- 74
2020-09-16 04:00:00 13.9 0 Calma 4 Nordeste 0 -- -- 70
2020-09-16 03:00:00 14.9 4 Norte 4 Nordeste 0 -- -- 65
2020-09-16 02:00:00 16.1 0 Calma 5 Sudeste 0 -- -- 61
2020-09-16 01:00:00 16.7 4 Sudeste 14 Este 0 -- -- 60
2020-09-16 00:00:00 17.3 2 Sudeste 4 Sudeste 0 -- -- 57
2020-09-15 23:00:00 18.7 2 Sudeste 8 Sudeste 0 -- -- 52
2020-09-15 22:00:00 20.1 3 Sudeste 10 Oeste 0 -- -- 49
2020-09-15 21:00:00 21.5 6 Noroeste 13 Oeste 0 -- -- 46
2020-09-15 20:00:00 23.8 11 Oeste 25 Oeste 0 -- -- 39
2020-09-15 19:00:00 26.3 18 Oeste 32 Oeste 0 -- -- 33
2020-09-15 18:00:00 27.1 18 Oeste 36 Oeste 0 -- -- 34
2020-09-15 17:00:00 27.2 20 Oeste 35 Oeste 0 -- -- 36
2020-09-15 16:00:00 26.9 20 Oeste 32 Oeste 0 -- -- 39
2020-09-15 15:00:00 26.1 16 Oeste 30 Oeste 0 -- -- 42
2020-09-15 14:00:00 24.2 12 Oeste 27 Sudoeste 0 -- -- 47
2020-09-15 13:00:00 22.8 20 Sudoeste 33 Sudoeste 0 -- -- 52
2020-09-15 12:00:00 20.9 17 Sudoeste 24 Sudoeste 0 -- -- 62
2020-09-15 11:00:00 19.2 8 Sur 15 Sur 0 -- -- 69
2020-09-15 10:00:00 14.6 4 Nordeste 29 Oeste 1.4 -- -- 87
2020-09-15 09:00:00 16.1 5 Norte 18 Noroeste 0 -- -- 70
2020-09-15 08:00:00 16 2 Norte 12 Oeste 0 -- -- 66
2020-09-15 07:00:00 16.4 6 Noroeste 18 Noroeste 0 -- -- 64
2020-09-15 06:00:00 16.4 9 Sur 11 Sur 0 -- -- 65
2020-09-15 05:00:00 17.1 8 Sudeste 15 Sur 0 -- -- 62
2020-09-15 04:00:00 18.8 4 Este 14 Oeste 0 -- -- 57
2020-09-15 03:00:00 19.2 6 Sudoeste 18 Sur 0 -- -- 56
2020-09-15 02:00:00 19.5 12 Sur 17 Sur 0 -- -- 56
2020-09-15 01:00:00 20.4 4 Sur 15 Sudeste 0 -- -- 52
2020-09-15 00:00:00 21.8 10 Sur 20 Sudeste 0 -- -- 48
2020-09-14 23:00:00 21.1 2 Nordeste 26 Sur 0 -- -- 46
2020-09-14 22:00:00 22.3 15 Sur 21 Sur 0 -- -- 42
2020-09-14 21:00:00 22.6 3 Oeste 18 Sudeste 0 -- -- 40
2020-09-14 20:00:00 24.6 13 Sudeste 26 Sudeste 0 -- -- 37
2020-09-14 19:00:00 25.6 18 Sudeste 25 Sudeste 0 -- -- 36
2020-09-14 18:00:00 26.8 12 Sudoeste 29 Sudoeste 0 -- -- 31
2020-09-14 17:00:00 27.6 15 Sudoeste 37 Sudoeste 0 -- -- 28
2020-09-14 16:00:00 29.5 21 Sudoeste 33 Sudoeste 0 -- -- 26
2020-09-14 15:00:00 26.2 20 Sudoeste 35 Sudoeste 0 -- -- 29
2020-09-14 14:00:00 27.1 17 Sudoeste 33 Sur 0 -- -- 29
2020-09-14 13:00:00 27.3 20 Sudoeste 31 Sur 0 -- -- 29
2020-09-14 12:00:00 25.7 14 Sudoeste 26 Sudoeste 0 -- -- 32
2020-09-14 11:00:00 24.1 12 Sur 16 Sur 0 -- -- 37
2020-09-14 10:00:00 22.6 4 Sur 7 Sur 0 -- -- 42
2020-09-14 09:00:00 15.6 3 Norte 13 Norte 0 -- -- 60
2020-09-14 08:00:00 12.6 6 Este 11 Este 0 -- -- 67
2020-09-14 07:00:00 14.5 2 Este 7 Este 0 -- -- 61
2020-09-14 06:00:00 14.7 2 Este 6 Este 0 -- -- 60
2020-09-14 05:00:00 14.9 6 Este 9 Este 0 -- -- 61
2020-09-14 04:00:00 17.2 4 Este 7 Este 0 -- -- 54
2020-09-14 03:00:00 17.6 8 Sudeste 10 Sudeste 0 -- -- 52
2020-09-14 02:00:00 17.9 0 Calma 26 Sur 0 -- -- 51
2020-09-14 01:00:00 20.6 18 Sur 30 Sur 0 -- -- 44
2020-09-14 00:00:00 21.5 17 Sur 29 Sudeste 0 -- -- 39
2020-09-13 23:00:00 22.2 26 Sudeste 32 Sudeste 0 -- -- 33
2020-09-13 22:00:00 22.6 20 Sudeste 26 Sudeste 0 -- -- 33
2020-09-13 21:00:00 24 19 Sudeste 32 Sudeste 0 -- -- 32
2020-09-13 20:00:00 26.8 22 Sudeste 32 Sudeste 0 -- -- 30
2020-09-13 19:00:00 29.7 12 Sur 24 Sur 0 -- -- 25
2020-09-13 18:00:00 30.8 17 Sur 28 Sur 0 -- -- 24
2020-09-13 17:00:00 30.8 16 Sur 31 Sur 0 -- -- 23
2020-09-13 16:00:00 30.2 18 Sur 36 Oeste 0 -- -- 25
2020-09-13 15:00:00 29.5 20 Sur 33 Sudoeste 0 -- -- 26
2020-09-13 14:00:00 28.5 15 Sudoeste 29 Sudoeste 0 -- -- 29
2020-09-13 13:00:00 26.6 13 Sur 26 Sudoeste 0 -- -- 35
2020-09-13 12:00:00 25.3 20 Sudoeste 30 Sudoeste 0 -- -- 38
2020-09-13 11:00:00 23.4 15 Sudoeste 24 Sur 0 -- -- 43
2020-09-13 10:00:00 21 2 Noroeste 4 Noroeste 0 -- -- 48
2020-09-13 09:00:00 15.6 3 Norte 5 Nordeste 0 -- -- 60
2020-09-13 08:00:00 12.6 2 Nordeste 8 Norte 0 -- -- 68
2020-09-13 07:00:00 12.1 4 Norte 10 Norte 0 -- -- 64
2020-09-13 06:00:00 14 5 Este 13 Norte 0 -- -- 58
2020-09-13 05:00:00 13.9 7 Norte 21 Sudeste 0 -- -- 55
2020-09-13 04:00:00 15.8 13 Sudeste 18 Sudeste 0 -- -- 51
2020-09-13 03:00:00 14.8 0 Calma 11 Norte 0 -- -- 53
2020-09-13 02:00:00 15.6 6 Nordeste 12 Nordeste 0 -- -- 48
2020-09-13 01:00:00 16 10 Nordeste 12 Norte 0 -- -- 44
2020-09-13 00:00:00 16.4 6 Norte 18 Este 0 -- -- 48
2020-09-12 23:00:00 19.1 15 Este 23 Este 0 -- -- 47
2020-09-12 22:00:00 19.9 17 Este 21 Este 0 -- -- 50
2020-09-12 21:00:00 20.5 16 Nordeste 24 Nordeste 0 -- -- 50
2020-09-12 20:00:00 24.1 13 Este 28 Nordeste 0 -- -- 41
2020-09-12 19:00:00 27.2 19 Nordeste 25 Nordeste 0 -- -- 26
2020-09-12 18:00:00 30.2 5 Noroeste 25 Norte 0 -- -- 12
2020-09-12 17:00:00 30.7 7 Sur 23 Noroeste 0 -- -- 16
2020-09-12 16:00:00 29.5 5 Este 22 Sur 0 -- -- 21
2020-09-12 15:00:00 28.1 5 Nordeste 21 Sudoeste 0 -- -- 26
2020-09-12 14:00:00 26.8 12 Sudoeste 22 Sudoeste 0 -- -- 31
2020-09-12 13:00:00 26.3 8 Sudeste 18 Sudeste 0 -- -- 30
2020-09-12 12:00:00 24.9 11 Sur 17 Sur 0 -- -- 40
2020-09-12 11:00:00 22 10 Sur 14 Sudeste 0 -- -- 48
2020-09-12 10:00:00 20.4 3 Sudeste 9 Norte 0 -- -- 49
2020-09-12 09:00:00 13.3 6 Norte 15 Norte 0 -- -- 72
2020-09-12 08:00:00 11.4 7 Norte 14 Nordeste 0 -- -- 80
2020-09-12 07:00:00 11.8 8 Norte 11 Norte 0 -- -- 81
2020-09-12 06:00:00 11.5 7 Norte 10 Norte 0 -- -- 83
2020-09-12 05:00:00 13.1 9 Norte 17 Norte 0 -- -- 80
2020-09-12 04:00:00 13.7 8 Nordeste 13 Nordeste 0 -- -- 80
2020-09-12 03:00:00 13.8 4 Noroeste 11 Nordeste 0 -- -- 76
2020-09-12 02:00:00 15.1 5 Norte 9 Norte 0 -- -- 73
2020-09-12 01:00:00 15.9 4 Noroeste 6 Sur 0 -- -- 69
2020-09-12 00:00:00 16.5 6 Nordeste 18 Nordeste 0 -- -- 66
2020-09-11 23:00:00 18.6 20 Nordeste 35 Nordeste 0 -- -- 58
2020-09-11 22:00:00 20 18 Nordeste 23 Nordeste 0 -- -- 48
2020-09-11 21:00:00 21.2 14 Nordeste 28 Nordeste 0 -- -- 44
2020-09-11 20:00:00 23.9 20 Nordeste 35 Nordeste 0 -- -- 42
2020-09-11 19:00:00 26.4 26 Nordeste 33 Nordeste 0 -- -- 36
2020-09-11 18:00:00 29.1 9 Norte 18 Nordeste 0 -- -- 22
2020-09-11 17:00:00 28.9 8 Nordeste 21 Nordeste 0 -- -- 25
2020-09-11 16:00:00 28.3 8 Nordeste 18 Norte 0 -- -- 27
2020-09-11 15:00:00 26 11 Norte 21 Nordeste 0 -- -- 28
2020-09-11 14:00:00 24.6 10 Norte 22 Norte 0 -- -- 33
2020-09-11 13:00:00 24.7 5 Este 12 Noroeste 0 -- -- 36
2020-09-11 12:00:00 23.3 6 Sudoeste 12 Norte 0 -- -- 41
2020-09-11 11:00:00 20.8 6 Norte 15 Nordeste 0 -- -- 52
2020-09-11 10:00:00 17.8 8 Norte 16 Nordeste 0 -- -- 62
2020-09-11 09:00:00 14 9 Norte 22 Norte 0 -- -- 72
2020-09-11 08:00:00 11.1 12 Norte 19 Norte 0 -- -- 80
2020-09-11 07:00:00 11.8 15 Nordeste 23 Nordeste 0 -- -- 76
2020-09-11 06:00:00 11.3 11 Norte 22 Nordeste 0 -- -- 76
2020-09-11 05:00:00 11.4 17 Nordeste 20 Norte 0 -- -- 74
2020-09-11 04:00:00 13.3 15 Norte 21 Norte 0 -- -- 66
2020-09-11 03:00:00 14.2 16 Norte 19 Norte 0 -- -- 63
2020-09-11 02:00:00 14.4 6 Norte 21 Norte 0 -- -- 61
2020-09-11 01:00:00 15.8 15 Norte 22 Nordeste 0 -- -- 56
2020-09-11 00:00:00 16.8 17 Norte 34 Nordeste 0 -- -- 53
2020-09-10 23:00:00 17.6 22 Nordeste 33 Nordeste 0 -- -- 52
2020-09-10 22:00:00 18.4 19 Nordeste 37 Nordeste 0 -- -- 46
2020-09-10 21:00:00 20.1 28 Nordeste 39 Nordeste 0 -- -- 42
2020-09-10 20:00:00 22.1 29 Nordeste 38 Nordeste 0 -- -- 38
2020-09-10 19:00:00 24.3 28 Nordeste 40 Nordeste 0 -- -- 33
2020-09-10 18:00:00 25.6 23 Nordeste 40 Nordeste 0 -- -- 32
2020-09-10 17:00:00 25.4 23 Nordeste 39 Nordeste 0 -- -- 31
2020-09-10 16:00:00 25.2 27 Nordeste 45 Nordeste 0 -- -- 31
2020-09-10 15:00:00 25 22 Nordeste 42 Nordeste 0 -- -- 34
2020-09-10 14:00:00 23.9 30 Nordeste 41 Nordeste 0 -- -- 37
2020-09-10 13:00:00 23.1 28 Nordeste 45 Nordeste 0 -- -- 40
2020-09-10 12:00:00 22.2 33 Nordeste 45 Nordeste 0 -- -- 41
2020-09-10 11:00:00 20.7 32 Nordeste 42 Nordeste 0 -- -- 44
2020-09-10 10:00:00 19.3 18 Nordeste 30 Nordeste 0 -- -- 50
2020-09-10 09:00:00 17.2 8 Norte 22 Nordeste 0 -- -- 59
2020-09-10 08:00:00 13.6 14 Nordeste 18 Nordeste 0 -- -- 70
2020-09-10 07:00:00 15 16 Norte 22 Nordeste 0 -- -- 64
2020-09-10 06:00:00 14.2 4 Noroeste 19 Nordeste 0 -- -- 65
2020-09-10 05:00:00 14.9 17 Nordeste 26 Nordeste 0 -- -- 64
2020-09-10 04:00:00 14.3 8 Sudoeste 34 Nordeste 0 -- -- 66
2020-09-10 03:00:00 14.9 24 Nordeste 32 Norte 0 -- -- 65
2020-09-10 02:00:00 15.5 20 Nordeste 31 Nordeste 0 -- -- 64
2020-09-10 01:00:00 16.2 22 Nordeste 41 Nordeste 0 -- -- 65
2020-09-10 00:00:00 17.3 35 Nordeste 45 Nordeste 0 -- -- 62
2020-09-09 23:00:00 17.7 27 Norte 47 Nordeste 0 -- -- 59
2020-09-09 22:00:00 18.8 25 Nordeste 40 Nordeste 0 -- -- 55
2020-09-09 21:00:00 20.5 30 Nordeste 38 Nordeste 0 -- -- 48
2020-09-09 20:00:00 23.2 26 Nordeste 36 Nordeste 0 -- -- 36
2020-09-09 19:00:00 24.4 25 Nordeste 34 Nordeste 0 -- -- 32
2020-09-09 18:00:00 25.4 23 Nordeste 36 Norte 0 -- -- 29
2020-09-09 17:00:00 25.5 18 Nordeste 36 Nordeste 0 -- -- 29
2020-09-09 16:00:00 25.5 16 Nordeste 33 Nordeste 0 -- -- 29
2020-09-09 15:00:00 25.1 14 Norte 37 Nordeste 0 -- -- 29
2020-09-09 14:00:00 23.7 12 Nordeste 30 Norte 0 -- -- 32
2020-09-09 13:00:00 22.8 8 Norte 19 Norte 0 -- -- 35
2020-09-09 12:00:00 23.2 8 Sur 15 Sur 0 -- -- 35
2020-09-09 11:00:00 22 3 Nordeste 10 Noroeste 0 -- -- 38
2020-09-09 10:00:00 17.9 4 Norte 10 Norte 0 -- -- 45
2020-09-09 09:00:00 13.3 6 Norte 15 Norte 0 -- -- 56
2020-09-09 08:00:00 10.1 11 Norte 14 Norte 0 -- -- 63
2020-09-09 07:00:00 10.7 7 Norte 13 Norte 0 -- -- 61
2020-09-09 06:00:00 10.5 10 Norte 14 Norte 0 -- -- 61
2020-09-09 05:00:00 11.2 12 Norte 17 Norte 0 -- -- 58
2020-09-09 04:00:00 12.2 0 Calma 12 Este 0 -- -- 55
2020-09-09 03:00:00 12.8 14 Este 19 Este 0 -- -- 53
2020-09-09 02:00:00 13.5 8 Nordeste 11 Nordeste 0 -- -- 50
2020-09-09 01:00:00 15.3 8 Este 10 Este 0 -- -- 46
2020-09-09 00:00:00 14.7 6 Nordeste 10 Nordeste 0 -- -- 47
2020-09-08 23:00:00 15 5 Nordeste 12 Este 0 -- -- 46
2020-09-08 22:00:00 15.9 3 Sur 21 Este 0 -- -- 45
2020-09-08 21:00:00 17.4 15 Este 30 Este 0 -- -- 41
2020-09-08 20:00:00 20.1 23 Este 33 Sudeste 0 -- -- 37
2020-09-08 19:00:00 22.2 15 Este 28 Sudeste 0 -- -- 32
2020-09-08 18:00:00 23 14 Este 33 Sudeste 0 -- -- 29
2020-09-08 17:00:00 23.3 17 Este 28 Sudeste 0 -- -- 30
2020-09-08 16:00:00 22.9 17 Sudeste 28 Sudeste 0 -- -- 29
2020-09-08 15:00:00 21.9 15 Este 27 Sudeste 0 -- -- 33
2020-09-08 14:00:00 20.4 12 Sudeste 28 Sudeste 0 -- -- 36
2020-09-08 13:00:00 19.5 17 Sudeste 28 Sudeste 0 -- -- 42
2020-09-08 12:00:00 18.7 16 Sudeste 28 Sudeste 0 -- -- 45
2020-09-08 11:00:00 16.9 14 Sudeste 22 Sudeste 0 -- -- 49
2020-09-08 10:00:00 16 4 Sudeste 9 Sudeste 0 -- -- 51
2020-09-08 09:00:00 11.2 3 Nordeste 9 Este 0 -- -- 71
2020-09-08 08:00:00 7.3 4 Noroeste 13 Nordeste 0 -- -- 84
2020-09-08 07:00:00 8.2 13 Nordeste 18 Nordeste 0 -- -- 82
2020-09-08 06:00:00 7.3 8 Nordeste 13 Nordeste 0 -- -- 85
2020-09-08 05:00:00 8.6 12 Nordeste 25 Nordeste 0 -- -- 80
2020-09-08 04:00:00 8.9 15 Nordeste 25 Norte 0 -- -- 80
2020-09-08 03:00:00 9.8 20 Nordeste 36 Nordeste 0 -- -- 76
2020-09-08 02:00:00 10.2 28 Nordeste 47 Nordeste 0 -- -- 73
2020-09-08 01:00:00 10.6 33 Nordeste 52 Nordeste 0 -- -- 69
2020-09-08 00:00:00 11.1 24 Norte 36 Norte 0 -- -- 66
2020-09-07 23:00:00 11.4 12 Nordeste 55 Norte 0 -- -- 63
2020-09-07 22:00:00 12.4 38 Norte 59 Norte 0 -- -- 59
2020-09-07 21:00:00 13.5 37 Nordeste 55 Nordeste 0 -- -- 52
2020-09-07 20:00:00 16.2 41 Nordeste 54 Nordeste 0 -- -- 43
2020-09-07 19:00:00 18.8 31 Nordeste 41 Nordeste 0 -- -- 37
2020-09-07 18:00:00 19.2 32 Nordeste 52 Norte 0 -- -- 35
2020-09-07 17:00:00 19.5 34 Nordeste 47 Nordeste 0 -- -- 34
2020-09-07 16:00:00 18.9 32 Nordeste 46 Nordeste 0 -- -- 36
2020-09-07 15:00:00 18.7 24 Nordeste 49 Nordeste 0 -- -- 38
2020-09-07 14:00:00 17.6 33 Nordeste 51 Nordeste 0 -- -- 42
2020-09-07 13:00:00 16 32 Nordeste 48 Nordeste 0 -- -- 49
2020-09-07 12:00:00 14.3 28 Nordeste 48 Norte 0 -- -- 56
2020-09-07 11:00:00 12.5 27 Nordeste 52 Nordeste 0 -- -- 65
2020-09-07 10:00:00 11.6 33 Nordeste 62 Nordeste 0 -- -- 68
2020-09-07 09:00:00 12 26 Norte 56 Nordeste 0 -- -- 66
2020-09-07 08:00:00 10.5 38 Nordeste 52 Norte 0 -- -- 68
2020-09-07 07:00:00 10.4 33 Norte 55 Norte 0 -- -- 67
2020-09-07 06:00:00 10.3 32 Norte 44 Nordeste 0 -- -- 71
2020-09-07 05:00:00 10.4 36 Nordeste 53 Norte 0 -- -- 71
2020-09-07 04:00:00 10.8 25 Norte 62 Norte 0 -- -- 72
2020-09-07 03:00:00 10.8 40 Nordeste 51 Nordeste 0 -- -- 71
2020-09-07 02:00:00 10.7 22 Norte 45 Nordeste 0 -- -- 74
2020-09-07 01:00:00 11.4 31 Nordeste 41 Nordeste 0 -- -- 76
2020-09-07 00:00:00 11.9 26 Norte 46 Nordeste 0 -- -- 73
2020-09-06 23:00:00 12.4 32 Nordeste 49 Nordeste 0 -- -- 70
2020-09-06 22:00:00 13.3 37 Nordeste 58 Nordeste 0 -- -- 67
2020-09-06 21:00:00 14.7 40 Nordeste 54 Nordeste 0 -- -- 61
2020-09-06 20:00:00 17 40 Nordeste 52 Nordeste 0 -- -- 54
2020-09-06 19:00:00 19.3 40 Nordeste 53 Nordeste 0 -- -- 49
2020-09-06 18:00:00 20.9 41 Nordeste 50 Nordeste 0 -- -- 49
2020-09-06 17:00:00 22.5 34 Nordeste 41 Nordeste 0 -- -- 46
2020-09-06 16:00:00 22.9 26 Nordeste 35 Nordeste 0 -- -- 46
2020-09-06 15:00:00 22.7 21 Nordeste 33 Norte 0 -- -- 46
2020-09-06 14:00:00 22.7 15 Nordeste 26 Nordeste 0 -- -- 46
2020-09-06 13:00:00 22.4 10 Norte 21 Nordeste 0 -- -- 48
2020-09-06 12:00:00 20.8 9 Norte 18 Nordeste 0 -- -- 55
2020-09-06 11:00:00 20 5 Sur 11 Sudeste 0 -- -- 60
2020-09-06 10:00:00 15.4 6 Sur 9 Sudoeste 0 -- -- 79
2020-09-06 09:00:00 13.9 3 Sudeste 8 Nordeste 0 -- -- 80
2020-09-06 08:00:00 11.6 6 Nordeste 11 Nordeste 0 -- -- 89
2020-09-06 07:00:00 11.7 9 Este 13 Nordeste 0 -- -- 89
2020-09-06 06:00:00 11.9 12 Nordeste 17 Nordeste 0 -- -- 89
2020-09-06 05:00:00 12.2 9 Norte 16 Nordeste 0 -- -- 89
2020-09-06 04:00:00 12.8 8 Norte 23 Nordeste 0 -- -- 87
2020-09-06 03:00:00 13.2 21 Nordeste 26 Nordeste 0 -- -- 86
2020-09-06 02:00:00 13.4 16 Nordeste 27 Nordeste 0 -- -- 85
2020-09-06 01:00:00 14.2 20 Nordeste 24 Nordeste 0 -- -- 81
2020-09-06 00:00:00 14.9 10 Nordeste 24 Nordeste 0 -- -- 79
2020-09-05 23:00:00 16 21 Nordeste 28 Nordeste 0 -- -- 75
2020-09-05 22:00:00 17.5 14 Nordeste 30 Nordeste 0 -- -- 70
2020-09-05 21:00:00 19.3 23 Nordeste 44 Nordeste 0 -- -- 64
2020-09-05 20:00:00 22.4 33 Nordeste 41 Nordeste 0 -- -- 55
2020-09-05 19:00:00 25.4 32 Nordeste 39 Nordeste 0 -- -- 45
2020-09-05 18:00:00 27.2 28 Nordeste 37 Nordeste 0 -- -- 40
2020-09-05 17:00:00 27.7 26 Nordeste 38 Nordeste 0 -- -- 38
2020-09-05 16:00:00 30.4 3 Nordeste 26 Sudeste 0 -- -- 32
2020-09-05 15:00:00 28.6 14 Sur 25 Sudeste 0 -- -- 35
2020-09-05 14:00:00 27.7 10 Este 21 Sudeste 0 -- -- 38
2020-09-05 13:00:00 26.9 13 Este 23 Sudeste 0 -- -- 38
2020-09-05 12:00:00 26 6 Noroeste 15 Norte 0 -- -- 38
2020-09-05 11:00:00 24 6 Norte 14 Norte 0 -- -- 42
2020-09-05 10:00:00 21.9 5 Nordeste 10 Norte 0 -- -- 48
2020-09-05 09:00:00 16.2 8 Norte 11 Norte 0 -- -- 60
2020-09-05 08:00:00 14 0 Calma 4 Sudeste 0 -- -- 64
2020-09-05 07:00:00 14.2 2 Nordeste 9 Norte 0 -- -- 62
2020-09-05 06:00:00 15 4 Sudeste 9 Norte 0 -- -- 61
2020-09-05 05:00:00 14.3 8 Norte 16 Norte 0 -- -- 60
2020-09-05 04:00:00 16.4 8 Nordeste 13 Este 0 -- -- 56
2020-09-05 03:00:00 17.3 3 Sudeste 14 Este 0 -- -- 53
2020-09-05 02:00:00 19.1 8 Sudeste 12 Sudeste 0 -- -- 47
2020-09-05 01:00:00 18.6 3 Este 9 Sudeste 0 -- -- 47
2020-09-05 00:00:00 20.6 6 Sur 23 Sur 0 -- -- 43
2020-09-04 23:00:00 22.5 15 Sur 28 Sudeste 0 -- -- 38
2020-09-04 22:00:00 22.7 22 Sudeste 34 Sudeste 0 -- -- 38
2020-09-04 21:00:00 24 22 Sudeste 34 Sudeste 0 -- -- 38
2020-09-04 20:00:00 27.6 19 Sudeste 28 Sudeste 0 -- -- 32
2020-09-04 19:00:00 31 6 Sudeste 21 Sur 0 -- -- 23
2020-09-04 18:00:00 30.8 8 Este 25 Sudoeste 0 -- -- 23
2020-09-04 17:00:00 32 8 Sudoeste 27 Sur 0 -- -- 20
2020-09-04 16:00:00 31.1 12 Sur 26 Sudoeste 0 -- -- 22
2020-09-04 15:00:00 28.9 7 Oeste 27 Sur 0 -- -- 26
2020-09-04 14:00:00 28.2 9 Sur 28 Sudoeste 0 -- -- 31
2020-09-04 13:00:00 27 11 Sudeste 27 Sudoeste 0 -- -- 37
2020-09-04 12:00:00 24.9 13 Sur 22 Sur 0 -- -- 43
2020-09-04 11:00:00 23.3 12 Sudoeste 19 Sudoeste 0 -- -- 48
2020-09-04 10:00:00 20.9 6 Sudeste 9 Sudeste 0 -- -- 49
2020-09-04 09:00:00 15.2 4 Norte 7 Norte 0 -- -- 57
2020-09-04 08:00:00 11.7 0 Calma 10 Norte 0 -- -- 67
2020-09-04 07:00:00 10.6 6 Norte 14 Nordeste 0 -- -- 63
2020-09-04 06:00:00 11.6 10 Nordeste 14 Nordeste 0 -- -- 60
2020-09-04 05:00:00 12.2 5 Norte 12 Nordeste 0 -- -- 59
2020-09-04 04:00:00 13.3 0 Calma 10 Norte 0 -- -- 57
2020-09-04 03:00:00 13.5 7 Norte 11 Norte 0 -- -- 56
2020-09-04 02:00:00 17.9 8 Sudeste 13 Sudeste 0 -- -- 45
2020-09-04 01:00:00 17.8 3 Sudeste 10 Sudeste 0 -- -- 44
2020-09-04 00:00:00 19.1 4 Sudoeste 22 Sudeste 0 -- -- 39
2020-09-03 23:00:00 20 8 Sudeste 27 Este 0 -- -- 38
2020-09-03 22:00:00 20.5 21 Este 30 Sudeste 0 -- -- 36
2020-09-03 21:00:00 21.3 19 Este 29 Sudeste 0 -- -- 35
2020-09-03 20:00:00 25.7 23 Sudeste 30 Sudeste 0 -- -- 29
2020-09-03 19:00:00 29.5 13 Sur 21 Sur 0 -- -- 19
2020-09-03 18:00:00 30.6 9 Sur 24 Sur 0 -- -- 18
2020-09-03 17:00:00 30.5 9 Sudoeste 31 Sur 0 -- -- 17
2020-09-03 16:00:00 29.9 9 Sur 21 Sudoeste 0 -- -- 18
2020-09-03 15:00:00 27.6 4 Nordeste 18 Sur 0 -- -- 24
2020-09-03 14:00:00 26.2 6 Este 19 Sur 0 -- -- 28
2020-09-03 13:00:00 24.3 5 Noroeste 18 Sur 0 -- -- 31
2020-09-03 12:00:00 24.4 5 Sur 15 Sudoeste 0 -- -- 40
2020-09-03 11:00:00 21.6 5 Sur 12 Sur 0 -- -- 41
2020-09-03 10:00:00 19.9 4 Sur 6 Sur 0 -- -- 41
2020-09-03 09:00:00 11.6 4 Norte 12 Nordeste 0 -- -- 63
2020-09-03 08:00:00 8.6 7 Norte 15 Norte 0 -- -- 72
2020-09-03 07:00:00 7.9 8 Norte 12 Norte 0 -- -- 75
2020-09-03 06:00:00 8.7 4 Nordeste 10 Norte 0 -- -- 73
2020-09-03 05:00:00 8.6 5 Norte 9 Norte 0 -- -- 72
2020-09-03 04:00:00 10.7 2 Nordeste 7 Este 0 -- -- 64
2020-09-03 03:00:00 11.5 3 Nordeste 8 Sudeste 0 -- -- 64
2020-09-03 02:00:00 11.8 2 Nordeste 9 Norte 0 -- -- 65
2020-09-03 01:00:00 12.4 7 Norte 9 Norte 0 -- -- 63
2020-09-03 00:00:00 13.1 6 Norte 15 Norte 0 -- -- 61
2020-09-02 23:00:00 14.8 9 Norte 27 Nordeste 0 -- -- 54
2020-09-02 22:00:00 16.7 22 Nordeste 32 Nordeste 0 -- -- 48
2020-09-02 21:00:00 18.4 21 Nordeste 33 Nordeste 0 -- -- 39
2020-09-02 20:00:00 21.7 21 Nordeste 28 Este 0 -- -- 33
2020-09-02 19:00:00 23.4 22 Nordeste 31 Nordeste 0 -- -- 31
2020-09-02 18:00:00 25 12 Nordeste 27 Nordeste 0 -- -- 28
2020-09-02 17:00:00 24.5 12 Nordeste 30 Nordeste 0 -- -- 28
2020-09-02 16:00:00 23.3 13 Nordeste 31 Nordeste 0 -- -- 28
2020-09-02 15:00:00 21.9 14 Nordeste 28 Nordeste 0 -- -- 31
2020-09-02 14:00:00 20.9 6 Nordeste 27 Norte 0 -- -- 33
2020-09-02 13:00:00 19.3 12 Nordeste 49 Norte 0 -- -- 35
2020-09-02 12:00:00 18.1 22 Nordeste 38 Norte 0 -- -- 41
2020-09-02 11:00:00 16.5 27 Nordeste 39 Nordeste 0 -- -- 49
2020-09-02 10:00:00 15.2 26 Nordeste 34 Nordeste 0 -- -- 56
2020-09-02 09:00:00 13.3 18 Norte 26 Norte 0 -- -- 63
2020-09-02 08:00:00 10.5 16 Nordeste 23 Norte 0 -- -- 74
2020-09-02 07:00:00 10.6 15 Norte 21 Norte 0 -- -- 76
2020-09-02 06:00:00 10.5 12 Nordeste 21 Nordeste 0 -- -- 77
2020-09-02 05:00:00 11.4 15 Nordeste 31 Nordeste 0 -- -- 74
2020-09-02 04:00:00 11.7 17 Nordeste 30 Nordeste 0 -- -- 73
2020-09-02 03:00:00 12.2 21 Nordeste 35 Norte 0 -- -- 69
2020-09-02 02:00:00 12.9 30 Nordeste 40 Nordeste 0 -- -- 61
2020-09-02 01:00:00 13.2 24 Nordeste 47 Nordeste 0 -- -- 56
2020-09-02 00:00:00 14.3 34 Nordeste 52 Nordeste 0 -- -- 50
2020-09-01 23:00:00 14.6 35 Nordeste 50 Nordeste 0 -- -- 47
2020-09-01 22:00:00 15.7 32 Nordeste 49 Nordeste 0 -- -- 48
2020-09-01 21:00:00 17.7 36 Nordeste 45 Nordeste 0 -- -- 44
2020-09-01 20:00:00 21 25 Nordeste 40 Nordeste 0 -- -- 31
2020-09-01 19:00:00 20.9 27 Nordeste 34 Nordeste 0 -- -- 31
2020-09-01 18:00:00 22.1 19 Nordeste 33 Nordeste 0 -- -- 30
2020-09-01 17:00:00 22.8 21 Nordeste 32 Nordeste 0 -- -- 29
2020-09-01 16:00:00 26.3 6 Noroeste 23 Noroeste 0 -- -- 21
2020-09-01 15:00:00 24.1 6 Norte 22 Noroeste 0 -- -- 23
2020-09-01 14:00:00 22.5 6 Oeste 14 Norte 0 -- -- 26
2020-09-01 13:00:00 21.3 6 Sudoeste 13 Sudoeste 0 -- -- 30
2020-09-01 12:00:00 22.2 7 Sur 13 Sudoeste 0 -- -- 30
2020-09-01 11:00:00 17.9 4 Noroeste 10 Nordeste 0 -- -- 39
2020-09-01 10:00:00 14.4 2 Norte 8 Sudoeste 0 -- -- 53
2020-09-01 09:00:00 12.5 2 Norte 13 Norte 0 -- -- 59
2020-09-01 08:00:00 9.9 6 Norte 9 Noroeste 0 -- -- 67
2020-09-01 07:00:00 10.1 4 Norte 14 Nordeste 0 -- -- 65
2020-09-01 06:00:00 10.9 12 Nordeste 14 Nordeste 0 -- -- 60
2020-09-01 05:00:00 9.7 6 Norte 10 Norte 0 -- -- 61
2020-09-01 04:00:00 10.1 3 Nordeste 9 Norte 0 -- -- 56
2020-09-01 03:00:00 10.8 2 Norte 9 Norte 0 -- -- 53
2020-09-01 02:00:00 11.4 3 Norte 9 Norte 0 -- -- 49
2020-09-01 01:00:00 12.5 3 Este 13 Este 0 -- -- 46
2020-09-01 00:00:00 13.9 4 Nordeste 7 Este 0 -- -- 44
2020-08-31 23:00:00 14.1 4 Nordeste 13 Nordeste 0 -- -- 39
2020-08-31 22:00:00 15.9 13 Este 23 Nordeste 0 -- -- 34
2020-08-31 21:00:00 18.1 19 Nordeste 29 Nordeste 0 -- -- 30
2020-08-31 20:00:00 20.9 13 Noroeste 23 Noroeste 0 -- -- 24
2020-08-31 19:00:00 23.2 14 Noroeste 27 Noroeste 0 -- -- 16
2020-08-31 18:00:00 24.2 9 Noroeste 39 Sudoeste 0 -- -- 18
2020-08-31 17:00:00 24.9 7 Sudoeste 25 Oeste 0 -- -- 19
2020-08-31 16:00:00 24.1 10 Sudoeste 21 Norte 0 -- -- 21
2020-08-31 15:00:00 21.5 9 Oeste 23 Noroeste 0 -- -- 24
2020-08-31 14:00:00 19.3 12 Norte 22 Noroeste 0 -- -- 28
2020-08-31 13:00:00 18.6 7 Norte 18 Noroeste 0 -- -- 29
2020-08-31 12:00:00 16.4 8 Oeste 24 Noroeste 0 -- -- 43
2020-08-31 11:00:00 13.9 9 Norte 15 Noroeste 0 -- -- 50
2020-08-31 10:00:00 13.5 5 Nordeste 10 Nordeste 0 -- -- 60
2020-08-31 09:00:00 8.5 5 Nordeste 8 Norte 0 -- -- 80
2020-08-31 08:00:00 5.3 6 Norte 10 Nordeste 0 -- -- 92
2020-08-31 07:00:00 4.8 10 Nordeste 12 Nordeste 0 -- -- 93
2020-08-31 06:00:00 5.3 7 Norte 16 Norte 0 -- -- 90
2020-08-31 05:00:00 6.7 10 Norte 17 Norte 0 -- -- 87
2020-08-31 04:00:00 7.3 10 Norte 16 Nordeste 0 -- -- 85
2020-08-31 03:00:00 7.4 10 Norte 17 Nordeste 0 -- -- 84
2020-08-31 02:00:00 8.6 7 Norte 32 Nordeste 0 -- -- 79
2020-08-31 01:00:00 9 21 Nordeste 29 Nordeste 0 -- -- 77
2020-08-31 00:00:00 9.7 23 Norte 33 Norte 0 -- -- 75
2020-08-30 23:00:00 10 15 Norte 32 Norte 0 -- -- 74
2020-08-30 22:00:00 11.1 27 Norte 38 Nordeste 0 -- -- 67
2020-08-30 21:00:00 12.6 26 Nordeste 41 Nordeste 0 -- -- 58
2020-08-30 20:00:00 14.6 32 Nordeste 40 Nordeste 0 -- -- 50
2020-08-30 19:00:00 15.5 29 Nordeste 42 Nordeste 0 -- -- 46
2020-08-30 18:00:00 17.5 21 Norte 39 Nordeste 0 -- -- 41
2020-08-30 17:00:00 17.9 16 Norte 39 Nordeste 0 -- -- 37
2020-08-30 16:00:00 16.3 20 Norte 36 Nordeste 0 -- -- 41
2020-08-30 15:00:00 15.8 23 Nordeste 36 Norte 0 -- -- 41
2020-08-30 14:00:00 15.9 22 Norte 38 Norte 0 -- -- 41
2020-08-30 13:00:00 15.5 19 Norte 40 Norte 0 -- -- 39
2020-08-30 12:00:00 14.3 22 Norte 41 Norte 0 -- -- 43
2020-08-30 11:00:00 13 24 Norte 36 Norte 0 -- -- 50
2020-08-30 10:00:00 11.9 22 Norte 31 Norte 0 -- -- 58
2020-08-30 09:00:00 9.6 15 Norte 23 Norte 0 -- -- 68
2020-08-30 08:00:00 5.5 8 Norte 15 Noroeste 0 -- -- 84
2020-08-30 07:00:00 5.3 7 Norte 19 Norte 0 -- -- 86
2020-08-30 06:00:00 6.8 12 Norte 20 Norte 0 -- -- 77
2020-08-30 05:00:00 7.6 14 Norte 21 Norte 0 -- -- 76
2020-08-30 04:00:00 7.6 17 Norte 22 Norte 0 -- -- 79
2020-08-30 03:00:00 7 13 Norte 27 Norte 0 -- -- 75
2020-08-30 02:00:00 8.7 20 Norte 36 Norte 0 -- -- 66
2020-08-30 01:00:00 9.2 28 Norte 46 Norte 0 -- -- 60
2020-08-30 00:00:00 10.1 32 Norte 42 Norte 0 -- -- 68
2020-08-29 23:00:00 10.8 28 Norte 45 Norte 0 -- -- 69
2020-08-29 22:00:00 11.2 20 Norte 45 Norte 0 -- -- 71
2020-08-29 21:00:00 12.4 30 Norte 42 Norte 0 -- -- 65
2020-08-29 20:00:00 13.7 23 Norte 41 Norte 0 -- -- 64
2020-08-29 19:00:00 13.7 31 Norte 44 Norte 0 -- -- 60
2020-08-29 18:00:00 12.9 19 Norte 53 Norte 0.2 -- -- 69
2020-08-29 17:00:00 15.7 42 Norte 54 Norte 0 -- -- 51
2020-08-29 16:00:00 18.2 27 Norte 46 Norte 0 -- -- 38
2020-08-29 15:00:00 18 28 Norte 44 Norte 0 -- -- 38
2020-08-29 14:00:00 17.7 26 Norte 43 Norte 0 -- -- 40
2020-08-29 13:00:00 16.1 30 Norte 46 Norte 0 -- -- 45
2020-08-29 12:00:00 16 27 Norte 43 Norte 0 -- -- 47
2020-08-29 11:00:00 14.4 24 Norte 38 Norte 0 -- -- 54
2020-08-29 10:00:00 13.3 27 Norte 44 Norte 0 -- -- 58
2020-08-29 09:00:00 11.9 6 Nordeste 22 Norte 0 -- -- 64
2020-08-29 08:00:00 8.3 3 Norte 13 Norte 0 -- -- 80
2020-08-29 07:00:00 8.7 10 Norte 23 Norte 0 -- -- 78
2020-08-29 06:00:00 10.2 13 Norte 33 Norte 0 -- -- 74
2020-08-29 05:00:00 11 24 Nordeste 33 Norte 0 -- -- 70
2020-08-29 04:00:00 11.5 26 Norte 37 Norte 0 -- -- 66
2020-08-29 03:00:00 11.2 28 Norte 44 Norte 0 -- -- 70
2020-08-29 02:00:00 11.5 34 Nordeste 57 Nordeste 0 -- -- 72
2020-08-29 01:00:00 12 39 Nordeste 56 Nordeste 0 -- -- 72
2020-08-29 00:00:00 12.2 43 Nordeste 62 Nordeste 0 -- -- 73
2020-08-28 23:00:00 12.2 41 Nordeste 58 Nordeste 0 -- -- 80
2020-08-28 22:00:00 12.3 37 Nordeste 53 Nordeste 0 -- -- 81
2020-08-28 21:00:00 13.3 39 Nordeste 57 Nordeste 0 -- -- 80
2020-08-28 20:00:00 16.7 32 Nordeste 53 Nordeste 0 -- -- 67
2020-08-28 19:00:00 18 44 Nordeste 54 Nordeste 0 -- -- 66
2020-08-28 18:00:00 19.8 42 Nordeste 48 Nordeste 0 -- -- 63
2020-08-28 17:00:00 23.2 37 Nordeste 46 Nordeste 0 -- -- 54
2020-08-28 16:00:00 27.1 18 Noroeste 34 Noroeste 0 -- -- 40
2020-08-28 15:00:00 26.2 19 Noroeste 35 Noroeste 0 -- -- 43
2020-08-28 14:00:00 26.1 17 Oeste 30 Noroeste 0 -- -- 44
2020-08-28 13:00:00 24.7 12 Norte 25 Norte 0 -- -- 51
2020-08-28 12:00:00 22.4 10 Nordeste -- -- 0 -- -- 64
2020-08-28 11:00:00 21 11 Norte 17 Norte 0 -- -- 69
2020-08-28 10:00:00 19.8 13 Nordeste 18 Norte 0 -- -- 75
2020-08-28 09:00:00 18 6 Norte 13 Norte 0 -- -- 83
2020-08-28 08:00:00 16.5 9 Norte 16 Nordeste 0 -- -- 87
2020-08-28 07:00:00 15.5 10 Nordeste 15 Norte 0 -- -- 88
2020-08-28 06:00:00 16 13 Norte 19 Norte 0 -- -- 85
2020-08-28 05:00:00 16.1 0 Calma 8 Sudeste 0 -- -- 81
2020-08-28 04:00:00 17.1 6 Norte 12 Nordeste 0 -- -- 81
2020-08-28 03:00:00 17.6 10 Norte 17 Nordeste 0 -- -- 80
2020-08-28 02:00:00 18.3 13 Norte 17 Norte 0 -- -- 79
2020-08-28 01:00:00 19.1 10 Nordeste 19 Nordeste 0 -- -- 76
2020-08-28 00:00:00 20 13 Norte 19 Norte 0 -- -- 70
2020-08-27 23:00:00 20.9 12 Norte 22 Nordeste 0 -- -- 66
2020-08-27 22:00:00 23.2 17 Nordeste 29 Nordeste 0 -- -- 57
2020-08-27 21:00:00 25.8 19 Nordeste 29 Norte 0 -- -- 41
2020-08-27 20:00:00 30.6 23 Noroeste 30 Noroeste 0 -- -- 19
2020-08-27 19:00:00 31.8 22 Noroeste 36 Noroeste 0 -- -- 21
2020-08-27 18:00:00 32.6 24 Noroeste 37 Noroeste 0 -- -- 19
2020-08-27 17:00:00 32.4 19 Noroeste 40 Noroeste 0 -- -- 23
2020-08-27 16:00:00 32.1 23 Noroeste 41 Noroeste 0 -- -- 23
2020-08-27 15:00:00 31.7 19 Noroeste 31 Noroeste 0 -- -- 24
2020-08-27 14:00:00 30.5 13 Norte 27 Noroeste 0 -- -- 30
2020-08-27 13:00:00 30.9 6 Oeste 20 Oeste 0 -- -- 34
2020-08-27 12:00:00 29.2 7 Sur 14 Sur 0 -- -- 40
2020-08-27 11:00:00 27 4 Nordeste 12 Norte 0 -- -- 46
2020-08-27 10:00:00 23 8 Norte 10 Norte 0 -- -- 59
2020-08-27 09:00:00 18.6 7 Norte 11 Norte 0 -- -- 75
2020-08-27 08:00:00 15.5 3 Norte 6 Norte 0 -- -- 82
2020-08-27 07:00:00 15.5 5 Norte 15 Nordeste 0 -- -- 85
2020-08-27 06:00:00 15.6 9 Norte 18 Norte 0 -- -- 84
2020-08-27 05:00:00 16.7 8 Nordeste 14 Norte 0 -- -- 74
2020-08-27 04:00:00 17.5 6 Sudeste 10 Norte 0 -- -- 67
2020-08-27 03:00:00 17.7 6 Nordeste 12 Nordeste 0 -- -- 76
2020-08-27 02:00:00 19.5 4 Nordeste 15 Nordeste 0 -- -- 73
2020-08-27 01:00:00 19.4 9 Norte 15 Nordeste 0 -- -- 74
2020-08-27 00:00:00 19.9 8 Norte 12 Nordeste 0 -- -- 71
2020-08-26 23:00:00 21.5 3 Norte 22 Este 0 -- -- 59
2020-08-26 22:00:00 24.1 14 Este 30 Nordeste 0 -- -- 47
2020-08-26 21:00:00 25.8 22 Nordeste 36 Este 0 -- -- 41
2020-08-26 20:00:00 29 27 Nordeste 40 Nordeste 0 -- -- 36
2020-08-26 19:00:00 33.4 16 Noroeste 24 Noroeste 0 -- -- 21
2020-08-26 18:00:00 34.4 10 Noroeste 30 Oeste 0 -- -- 20
2020-08-26 17:00:00 34.6 19 Oeste 41 Oeste 0 -- -- 19
2020-08-26 16:00:00 34.1 20 Oeste 32 Sudoeste 0 -- -- 19
2020-08-26 15:00:00 33 17 Oeste 28 Oeste 0 -- -- 21
2020-08-26 14:00:00 31.6 9 Noroeste 24 Noroeste 0 -- -- 25
2020-08-26 13:00:00 30.3 4 Nordeste 14 Sudoeste 0 -- -- 32
2020-08-26 12:00:00 29.5 5 Sudeste 13 Sudeste 0 -- -- 36
2020-08-26 11:00:00 26.7 8 Sur 15 Sur 0 -- -- 40
2020-08-26 10:00:00 23.8 4 Noroeste 12 Norte 0 -- -- 48
2020-08-26 09:00:00 18.4 9 Norte 14 Norte 0 -- -- 66
2020-08-26 08:00:00 15.1 12 Norte 16 Norte 0 -- -- 72
2020-08-26 07:00:00 15.3 7 Nordeste 11 Nordeste 0 -- -- 71
2020-08-26 06:00:00 15.5 4 Nordeste 14 Norte 0 -- -- 73
2020-08-26 05:00:00 16.9 9 Nordeste 13 Nordeste 0 -- -- 70
2020-08-26 04:00:00 18.1 5 Nordeste 24 Nordeste 0 -- -- 63
2020-08-26 03:00:00 18.9 22 Nordeste 25 Nordeste 0 -- -- 61
2020-08-26 02:00:00 19 10 Nordeste 17 Nordeste 0 -- -- 61
2020-08-26 01:00:00 18.8 13 Nordeste 21 Nordeste 0 -- -- 60
2020-08-26 00:00:00 20.7 18 Nordeste 21 Nordeste 0 -- -- 50
2020-08-25 23:00:00 22 10 Norte 17 Nordeste 0 -- -- 42
2020-08-25 22:00:00 23.8 14 Nordeste 22 Nordeste 0 -- -- 37
2020-08-25 21:00:00 27.1 12 Norte 18 Nordeste 0 -- -- 29
2020-08-25 20:00:00 32.4 7 Oeste 24 Oeste 0 -- -- 24
2020-08-25 19:00:00 34 8 Oeste 22 Noroeste 0 -- -- 23
2020-08-25 18:00:00 33.2 17 Oeste 29 Noroeste 0 -- -- 23
2020-08-25 17:00:00 33.1 14 Noroeste 32 Oeste 0 -- -- 21
2020-08-25 16:00:00 33 15 Oeste 33 Oeste 0 -- -- 22
2020-08-25 15:00:00 32.2 16 Oeste 34 Oeste 0 -- -- 23
2020-08-25 14:00:00 30.4 15 Noroeste 53 Oeste 0 -- -- 28
2020-08-25 13:00:00 29.5 8 Oeste 21 Oeste 0 -- -- 29
2020-08-25 12:00:00 27.2 10 Noroeste 18 Oeste 0 -- -- 41
2020-08-25 11:00:00 25.6 3 Norte 12 Norte 0 -- -- 46
2020-08-25 10:00:00 21.6 7 Nordeste 12 Nordeste 0 -- -- 52
2020-08-25 09:00:00 16.2 6 Norte 14 Nordeste 0 -- -- 67
2020-08-25 08:00:00 13.3 3 Nordeste 13 Norte 0 -- -- 73
2020-08-25 07:00:00 12.3 12 Norte 16 Nordeste 0 -- -- 77
2020-08-25 06:00:00 13.5 6 Norte 14 Nordeste 0 -- -- 74
2020-08-25 05:00:00 14.1 0 Calma 10 Nordeste 0 -- -- 72
2020-08-25 04:00:00 14.7 6 Norte 10 Norte 0 -- -- 70
2020-08-25 03:00:00 14.5 4 Norte 15 Norte 0 -- -- 70
2020-08-25 02:00:00 16.7 3 Este 11 Este 0 -- -- 63
2020-08-25 01:00:00 18.5 12 Este 18 Sudeste 0 -- -- 58
2020-08-25 00:00:00 19.2 13 Este 17 Este 0 -- -- 56
2020-08-24 23:00:00 19.5 7 Sudeste 20 Este 0 -- -- 55
2020-08-24 22:00:00 20.9 17 Este 27 Sudeste 0 -- -- 52
2020-08-24 21:00:00 22.8 18 Este 27 Este 0 -- -- 46
2020-08-24 20:00:00 28.1 15 Norte 27 Nordeste 0 -- -- 32
2020-08-24 19:00:00 29.9 15 Noroeste 30 Noroeste 0 -- -- 25
2020-08-24 18:00:00 31 8 Oeste 28 Noroeste 0 -- -- 23
2020-08-24 17:00:00 30.1 3 Norte 22 Oeste 0 -- -- 27
2020-08-24 16:00:00 28.8 9 Sudoeste 34 Nordeste 0 -- -- 29
2020-08-24 15:00:00 27.2 8 Nordeste 21 Oeste 0 -- -- 33
2020-08-24 14:00:00 26.7 10 Sur 20 Sudoeste 0 -- -- 37
2020-08-24 13:00:00 25.6 6 Sudeste 14 Sur 0 -- -- 39
2020-08-24 12:00:00 24.4 6 Sudoeste 16 Sudoeste 0 -- -- 38
2020-08-24 11:00:00 23.2 6 Sur 12 Sur 0 -- -- 40
2020-08-24 10:00:00 21.6 4 Sur 9 Norte 0 -- -- 43
2020-08-24 09:00:00 16.8 4 Nordeste 12 Nordeste 0 -- -- 60
2020-08-24 08:00:00 11.9 8 Norte 13 Nordeste 0 -- -- 77
2020-08-24 07:00:00 11.6 9 Nordeste 14 Norte 0 -- -- 79
2020-08-24 06:00:00 11.5 9 Norte 16 Norte 0 -- -- 80
2020-08-24 05:00:00 12.2 13 Norte 18 Nordeste 0 -- -- 77
2020-08-24 04:00:00 12.7 10 Nordeste 14 Nordeste 0 -- -- 75
2020-08-24 03:00:00 14 7 Norte 14 Nordeste 0 -- -- 71
2020-08-24 02:00:00 14.4 0 Calma 22 Nordeste 0 -- -- 70
2020-08-24 01:00:00 15.8 12 Nordeste 27 Nordeste 0 -- -- 65
2020-08-24 00:00:00 16.4 21 Nordeste 39 Nordeste 0 -- -- 65
2020-08-23 23:00:00 17.2 26 Nordeste 37 Nordeste 0 -- -- 62
2020-08-23 22:00:00 18.1 28 Nordeste 40 Nordeste 0 -- -- 59
2020-08-23 21:00:00 20.3 28 Nordeste 40 Nordeste 0 -- -- 47
2020-08-23 20:00:00 23.7 30 Nordeste 37 Nordeste 0 -- -- 38
2020-08-23 19:00:00 25.8 26 Nordeste 35 Nordeste 0 -- -- 31
2020-08-23 18:00:00 27 19 Nordeste 31 Nordeste 0 -- -- 28
2020-08-23 17:00:00 27.1 13 Norte 27 Norte 0 -- -- 22
2020-08-23 16:00:00 26.4 15 Nordeste 29 Norte 0 -- -- 21
2020-08-23 15:00:00 25.9 14 Nordeste 28 Nordeste 0 -- -- 25
2020-08-23 14:00:00 24.3 18 Nordeste 29 Norte 0 -- -- 32
2020-08-23 13:00:00 23.7 10 Nordeste 21 Nordeste 0 -- -- 31
2020-08-23 12:00:00 22 8 Nordeste 21 Nordeste 0 -- -- 44
2020-08-23 11:00:00 20 15 Nordeste 24 Nordeste 0 -- -- 52
2020-08-23 10:00:00 18 17 Nordeste 23 Nordeste 0 -- -- 62
2020-08-23 09:00:00 15.7 14 Nordeste 23 Nordeste 0 -- -- 73
2020-08-23 08:00:00 13.7 18 Nordeste 28 Nordeste 0 -- -- 81
2020-08-23 07:00:00 12.9 16 Nordeste 23 Nordeste 0 -- -- 86
2020-08-23 06:00:00 13.5 22 Nordeste 33 Nordeste 0 -- -- 86
2020-08-23 05:00:00 14 25 Nordeste 32 Nordeste 0 -- -- 85
2020-08-23 04:00:00 14 24 Nordeste 32 Nordeste 0 -- -- 86
2020-08-23 03:00:00 13.9 17 Nordeste 22 Nordeste 0 -- -- 84
2020-08-23 02:00:00 14.5 15 Nordeste 23 Nordeste 0 -- -- 81
2020-08-23 01:00:00 15.3 15 Nordeste 33 Nordeste 0 -- -- 76
2020-08-23 00:00:00 16.4 25 Nordeste 41 Nordeste 0 -- -- 72